sensor_id;sensor_type;location;lat;lon;timestamp;temperature;humidity
69393;SHT31;56582;44.624;20.378;2022-10-23T00:01:32;16.07;82.73
69393;SHT31;56582;44.624;20.378;2022-10-23T00:04:10;16.04;83.76
69393;SHT31;56582;44.624;20.378;2022-10-23T00:06:36;16.12;82.31
69393;SHT31;56582;44.624;20.378;2022-10-23T00:09:04;16.10;83.07
69393;SHT31;56582;44.624;20.378;2022-10-23T00:11:30;15.90;83.25
69393;SHT31;56582;44.624;20.378;2022-10-23T00:13:58;16.04;83.08
69393;SHT31;56582;44.624;20.378;2022-10-23T00:16:25;15.92;83.91
69393;SHT31;56582;44.624;20.378;2022-10-23T00:18:51;16.06;82.43
69393;SHT31;56582;44.624;20.378;2022-10-23T00:21:16;16.50;79.95
69393;SHT31;56582;44.624;20.378;2022-10-23T00:23:43;16.48;80.96
69393;SHT31;56582;44.624;20.378;2022-10-23T00:26:09;16.81;80.09
69393;SHT31;56582;44.624;20.378;2022-10-23T00:28:46;16.34;81.44
69393;SHT31;56582;44.624;20.378;2022-10-23T00:31:12;16.40;80.81
69393;SHT31;56582;44.624;20.378;2022-10-23T00:33:38;16.38;81.59
69393;SHT31;56582;44.624;20.378;2022-10-23T00:36:08;16.35;81.55
69393;SHT31;56582;44.624;20.378;2022-10-23T00:38:35;16.50;80.64
69393;SHT31;56582;44.624;20.378;2022-10-23T00:41:01;16.52;80.19
69393;SHT31;56582;44.624;20.378;2022-10-23T00:43:28;16.48;80.44
69393;SHT31;56582;44.624;20.378;2022-10-23T00:45:54;16.57;80.07
69393;SHT31;56582;44.624;20.378;2022-10-23T00:48:20;16.35;80.31
69393;SHT31;56582;44.624;20.378;2022-10-23T00:50:47;16.24;80.43
69393;SHT31;56582;44.624;20.378;2022-10-23T00:53:14;16.48;79.65
69393;SHT31;56582;44.624;20.378;2022-10-23T00:55:42;16.73;79.39
69393;SHT31;56582;44.624;20.378;2022-10-23T00:58:15;16.43;79.22
69393;SHT31;56582;44.624;20.378;2022-10-23T01:00:52;15.90;82.37
69393;SHT31;56582;44.624;20.378;2022-10-23T01:03:20;16.24;79.93
69393;SHT31;56582;44.624;20.378;2022-10-23T01:06:12;16.48;78.91
69393;SHT31;56582;44.624;20.378;2022-10-23T01:08:53;16.51;79.42
69393;SHT31;56582;44.624;20.378;2022-10-23T01:14:30;15.70;82.55
69393;SHT31;56582;44.624;20.378;2022-10-23T01:17:06;15.49;83.09
69393;SHT31;56582;44.624;20.378;2022-10-23T01:25:25;15.12;84.18
69393;SHT31;56582;44.624;20.378;2022-10-23T01:28:00;14.86;85.27
69393;SHT31;56582;44.624;20.378;2022-10-23T01:30:28;14.91;85.39
69393;SHT31;56582;44.624;20.378;2022-10-23T01:33:08;14.81;85.68
69393;SHT31;56582;44.624;20.378;2022-10-23T01:35:48;14.88;85.42
69393;SHT31;56582;44.624;20.378;2022-10-23T01:38:22;14.40;86.92
69393;SHT31;56582;44.624;20.378;2022-10-23T01:43:26;14.56;86.65
69393;SHT31;56582;44.624;20.378;2022-10-23T01:46:01;14.63;86.04
69393;SHT31;56582;44.624;20.378;2022-10-23T01:48:29;14.65;85.98
69393;SHT31;56582;44.624;20.378;2022-10-23T01:50:59;14.65;85.64
69393;SHT31;56582;44.624;20.378;2022-10-23T01:53:28;14.69;85.24
69393;SHT31;56582;44.624;20.378;2022-10-23T01:55:56;14.69;84.68
69393;SHT31;56582;44.624;20.378;2022-10-23T01:58:24;14.55;84.36
69393;SHT31;56582;44.624;20.378;2022-10-23T02:00:51;14.46;84.63
69393;SHT31;56582;44.624;20.378;2022-10-23T02:03:19;14.36;84.71
69393;SHT31;56582;44.624;20.378;2022-10-23T02:05:45;14.30;85.19
69393;SHT31;56582;44.624;20.378;2022-10-23T02:08:11;14.26;85.13
69393;SHT31;56582;44.624;20.378;2022-10-23T02:10:43;13.90;85.56
69393;SHT31;56582;44.624;20.378;2022-10-23T02:13:24;14.08;85.16
69393;SHT31;56582;44.624;20.378;2022-10-23T02:16:11;14.11;85.48
69393;SHT31;56582;44.624;20.378;2022-10-23T02:21:33;14.07;86.03
69393;SHT31;56582;44.624;20.378;2022-10-23T02:27:29;14.01;86.33
69393;SHT31;56582;44.624;20.378;2022-10-23T02:30:01;13.85;86.44
69393;SHT31;56582;44.624;20.378;2022-10-23T02:32:28;13.73;86.45
69393;SHT31;56582;44.624;20.378;2022-10-23T02:34:54;13.71;86.57
69393;SHT31;56582;44.624;20.378;2022-10-23T02:37:20;13.69;86.58
69393;SHT31;56582;44.624;20.378;2022-10-23T02:39:46;13.84;86.43
69393;SHT31;56582;44.624;20.378;2022-10-23T02:42:18;14.15;86.15
69393;SHT31;56582;44.624;20.378;2022-10-23T02:55:47;13.61;87.98
69393;SHT31;56582;44.624;20.378;2022-10-23T03:03:38;13.54;87.38
69393;SHT31;56582;44.624;20.378;2022-10-23T03:06:05;13.42;88.05
69393;SHT31;56582;44.624;20.378;2022-10-23T03:08:43;13.44;87.78
69393;SHT31;56582;44.624;20.378;2022-10-23T03:11:09;13.44;87.82
69393;SHT31;56582;44.624;20.378;2022-10-23T03:13:35;13.54;87.72
69393;SHT31;56582;44.624;20.378;2022-10-23T03:16:00;13.63;87.65
69393;SHT31;56582;44.624;20.378;2022-10-23T03:18:26;13.61;87.82
69393;SHT31;56582;44.624;20.378;2022-10-23T03:20:52;13.59;88.36
69393;SHT31;56582;44.624;20.378;2022-10-23T03:23:17;13.40;89.30
69393;SHT31;56582;44.624;20.378;2022-10-23T03:25:43;13.29;88.74
69393;SHT31;56582;44.624;20.378;2022-10-23T03:28:08;13.20;88.25
69393;SHT31;56582;44.624;20.378;2022-10-23T03:30:33;13.32;88.25
69393;SHT31;56582;44.624;20.378;2022-10-23T03:32:59;13.29;88.06
69393;SHT31;56582;44.624;20.378;2022-10-23T03:35:24;13.43;88.18
69393;SHT31;56582;44.624;20.378;2022-10-23T03:37:50;13.44;88.28
69393;SHT31;56582;44.624;20.378;2022-10-23T03:40:15;13.29;88.48
69393;SHT31;56582;44.624;20.378;2022-10-23T03:42:40;13.22;88.66
69393;SHT31;56582;44.624;20.378;2022-10-23T03:45:06;13.32;88.11
69393;SHT31;56582;44.624;20.378;2022-10-23T03:47:32;13.40;88.11
69393;SHT31;56582;44.624;20.378;2022-10-23T03:49:59;13.49;87.77
69393;SHT31;56582;44.624;20.378;2022-10-23T03:52:25;13.51;87.60
69393;SHT31;56582;44.624;20.378;2022-10-23T03:54:50;13.53;87.09
69393;SHT31;56582;44.624;20.378;2022-10-23T03:57:16;13.53;86.93
69393;SHT31;56582;44.624;20.378;2022-10-23T03:59:41;13.49;87.10
69393;SHT31;56582;44.624;20.378;2022-10-23T04:02:07;13.47;86.87
69393;SHT31;56582;44.624;20.378;2022-10-23T04:04:32;13.22;87.68
69393;SHT31;56582;44.624;20.378;2022-10-23T04:06:57;13.09;87.76
69393;SHT31;56582;44.624;20.378;2022-10-23T04:09:23;13.03;88.01
69393;SHT31;56582;44.624;20.378;2022-10-23T04:11:48;13.08;88.21
69393;SHT31;56582;44.624;20.378;2022-10-23T04:14:14;12.99;88.10
69393;SHT31;56582;44.624;20.378;2022-10-23T04:16:39;13.12;87.57
69393;SHT31;56582;44.624;20.378;2022-10-23T04:19:05;13.29;87.51
69393;SHT31;56582;44.624;20.378;2022-10-23T04:21:30;13.08;88.21
69393;SHT31;56582;44.624;20.378;2022-10-23T04:23:56;13.19;88.55
69393;SHT31;56582;44.624;20.378;2022-10-23T04:26:21;13.23;88.51
69393;SHT31;56582;44.624;20.378;2022-10-23T04:28:48;13.23;88.48
69393;SHT31;56582;44.624;20.378;2022-10-23T04:31:13;13.23;88.51
69393;SHT31;56582;44.624;20.378;2022-10-23T04:33:39;13.02;88.78
69393;SHT31;56582;44.624;20.378;2022-10-23T04:36:05;13.02;88.71
69393;SHT31;56582;44.624;20.378;2022-10-23T04:38:30;12.88;88.47
69393;SHT31;56582;44.624;20.378;2022-10-23T04:40:56;12.96;88.38
69393;SHT31;56582;44.624;20.378;2022-10-23T04:43:21;12.96;88.56
69393;SHT31;56582;44.624;20.378;2022-10-23T04:45:47;13.03;89.29
69393;SHT31;56582;44.624;20.378;2022-10-23T04:48:13;13.13;88.84
69393;SHT31;56582;44.624;20.378;2022-10-23T04:50:38;13.19;89.49
69393;SHT31;56582;44.624;20.378;2022-10-23T04:53:04;13.33;88.96
69393;SHT31;56582;44.624;20.378;2022-10-23T04:55:29;13.49;89.18
69393;SHT31;56582;44.624;20.378;2022-10-23T04:57:54;13.63;88.59
69393;SHT31;56582;44.624;20.378;2022-10-23T05:00:20;14.15;89.12
69393;SHT31;56582;44.624;20.378;2022-10-23T05:02:45;14.50;86.93
69393;SHT31;56582;44.624;20.378;2022-10-23T05:05:11;14.43;85.67
69393;SHT31;56582;44.624;20.378;2022-10-23T05:07:37;14.70;86.42
69393;SHT31;56582;44.624;20.378;2022-10-23T05:10:03;15.04;85.22
69393;SHT31;56582;44.624;20.378;2022-10-23T05:12:29;15.54;83.49
69393;SHT31;56582;44.624;20.378;2022-10-23T05:14:54;15.76;82.29
69393;SHT31;56582;44.624;20.378;2022-10-23T05:17:23;16.03;81.25
69393;SHT31;56582;44.624;20.378;2022-10-23T05:19:55;16.04;81.31
69393;SHT31;56582;44.624;20.378;2022-10-23T05:22:24;16.16;80.96
69393;SHT31;56582;44.624;20.378;2022-10-23T05:24:51;16.35;80.00
69393;SHT31;56582;44.624;20.378;2022-10-23T05:27:17;16.45;79.39
69393;SHT31;56582;44.624;20.378;2022-10-23T05:29:43;16.54;79.03
69393;SHT31;56582;44.624;20.378;2022-10-23T05:32:09;16.57;79.02
69393;SHT31;56582;44.624;20.378;2022-10-23T05:34:36;16.68;78.16
69393;SHT31;56582;44.624;20.378;2022-10-23T05:37:03;16.57;77.97
69393;SHT31;56582;44.624;20.378;2022-10-23T05:39:31;16.40;78.22
69393;SHT31;56582;44.624;20.378;2022-10-23T05:41:56;16.38;78.23
69393;SHT31;56582;44.624;20.378;2022-10-23T05:44:22;16.06;80.73
69393;SHT31;56582;44.624;20.378;2022-10-23T05:46:47;15.72;82.34
69393;SHT31;56582;44.624;20.378;2022-10-23T05:49:13;15.51;83.71
69393;SHT31;56582;44.624;20.378;2022-10-23T05:51:39;15.39;84.28
69393;SHT31;56582;44.624;20.378;2022-10-23T05:54:05;15.51;83.72
69393;SHT31;56582;44.624;20.378;2022-10-23T05:56:38;15.75;82.63
69393;SHT31;56582;44.624;20.378;2022-10-23T05:59:06;15.97;81.54
69393;SHT31;56582;44.624;20.378;2022-10-23T06:01:32;16.23;81.04
69393;SHT31;56582;44.624;20.378;2022-10-23T06:03:59;16.50;80.76
69393;SHT31;56582;44.624;20.378;2022-10-23T06:06:24;16.67;79.94
69393;SHT31;56582;44.624;20.378;2022-10-23T06:08:50;16.60;80.26
69393;SHT31;56582;44.624;20.378;2022-10-23T06:11:15;17.03;79.55
69393;SHT31;56582;44.624;20.378;2022-10-23T06:13:42;17.31;78.05
69393;SHT31;56582;44.624;20.378;2022-10-23T06:16:09;17.24;78.52
69393;SHT31;56582;44.624;20.378;2022-10-23T06:18:34;17.37;77.47
69393;SHT31;56582;44.624;20.378;2022-10-23T06:21:00;17.50;77.54
69393;SHT31;56582;44.624;20.378;2022-10-23T06:23:26;17.58;77.04
69393;SHT31;56582;44.624;20.378;2022-10-23T06:25:52;17.66;76.56
69393;SHT31;56582;44.624;20.378;2022-10-23T06:28:21;17.75;76.23
69393;SHT31;56582;44.624;20.378;2022-10-23T06:30:46;17.84;76.18
69393;SHT31;56582;44.624;20.378;2022-10-23T06:33:12;18.01;75.56
69393;SHT31;56582;44.624;20.378;2022-10-23T06:35:37;18.08;75.19
69393;SHT31;56582;44.624;20.378;2022-10-23T06:38:03;17.99;76.20
69393;SHT31;56582;44.624;20.378;2022-10-23T06:40:28;17.97;75.90
69393;SHT31;56582;44.624;20.378;2022-10-23T06:42:54;18.46;74.41
69393;SHT31;56582;44.624;20.378;2022-10-23T06:45:20;18.43;74.30
69393;SHT31;56582;44.624;20.378;2022-10-23T06:47:45;18.56;73.99
69393;SHT31;56582;44.624;20.378;2022-10-23T06:50:11;18.66;73.68
69393;SHT31;56582;44.624;20.378;2022-10-23T06:52:36;18.74;73.58
69393;SHT31;56582;44.624;20.378;2022-10-23T06:55:02;18.94;72.03
69393;SHT31;56582;44.624;20.378;2022-10-23T06:57:27;18.45;74.94
69393;SHT31;56582;44.624;20.378;2022-10-23T06:59:53;18.02;77.25
69393;SHT31;56582;44.624;20.378;2022-10-23T07:02:18;18.13;75.92
69393;SHT31;56582;44.624;20.378;2022-10-23T07:04:44;18.04;77.01
69393;SHT31;56582;44.624;20.378;2022-10-23T07:07:09;18.12;75.65
69393;SHT31;56582;44.624;20.378;2022-10-23T07:09:35;17.79;77.72
69393;SHT31;56582;44.624;20.378;2022-10-23T07:12:00;17.75;77.38
69393;SHT31;56582;44.624;20.378;2022-10-23T07:14:26;17.75;77.37
69393;SHT31;56582;44.624;20.378;2022-10-23T07:16:51;17.67;77.79
69393;SHT31;56582;44.624;20.378;2022-10-23T07:19:17;17.39;79.40
69393;SHT31;56582;44.624;20.378;2022-10-23T07:21:43;17.51;78.25
69393;SHT31;56582;44.624;20.378;2022-10-23T07:24:08;17.60;78.82
69393;SHT31;56582;44.624;20.378;2022-10-23T07:26:34;17.57;79.38
69393;SHT31;56582;44.624;20.378;2022-10-23T07:28:59;17.78;78.75
69393;SHT31;56582;44.624;20.378;2022-10-23T07:31:25;17.97;78.47
69393;SHT31;56582;44.624;20.378;2022-10-23T07:33:51;18.15;77.70
69393;SHT31;56582;44.624;20.378;2022-10-23T07:36:17;17.84;78.39
69393;SHT31;56582;44.624;20.378;2022-10-23T07:38:44;17.85;78.39
69393;SHT31;56582;44.624;20.378;2022-10-23T07:41:10;17.26;80.29
69393;SHT31;56582;44.624;20.378;2022-10-23T07:43:36;17.29;80.77
69393;SHT31;56582;44.624;20.378;2022-10-23T07:46:02;17.30;81.26
69393;SHT31;56582;44.624;20.378;2022-10-23T07:48:28;17.22;81.81
69393;SHT31;56582;44.624;20.378;2022-10-23T07:50:58;17.12;82.49
69393;SHT31;56582;44.624;20.378;2022-10-23T07:53:26;17.31;81.94
69393;SHT31;56582;44.624;20.378;2022-10-23T07:55:56;17.26;82.24
69393;SHT31;56582;44.624;20.378;2022-10-23T07:58:22;17.60;80.07
69393;SHT31;56582;44.624;20.378;2022-10-23T08:00:53;17.40;81.41
69393;SHT31;56582;44.624;20.378;2022-10-23T08:03:20;17.53;81.15
69393;SHT31;56582;44.624;20.378;2022-10-23T08:05:46;17.47;81.12
69393;SHT31;56582;44.624;20.378;2022-10-23T08:08:11;17.44;81.06
69393;SHT31;56582;44.624;20.378;2022-10-23T08:10:37;17.50;80.66
69393;SHT31;56582;44.624;20.378;2022-10-23T08:13:02;18.01;79.74
69393;SHT31;56582;44.624;20.378;2022-10-23T08:15:27;18.19;78.44
69393;SHT31;56582;44.624;20.378;2022-10-23T08:17:53;18.47;77.22
69393;SHT31;56582;44.624;20.378;2022-10-23T08:20:18;18.33;77.68
69393;SHT31;56582;44.624;20.378;2022-10-23T08:22:44;18.50;77.87
69393;SHT31;56582;44.624;20.378;2022-10-23T08:25:09;18.49;77.16
69393;SHT31;56582;44.624;20.378;2022-10-23T08:27:35;17.78;80.71
69393;SHT31;56582;44.624;20.378;2022-10-23T08:30:00;18.19;78.79
69393;SHT31;56582;44.624;20.378;2022-10-23T08:32:29;18.22;78.40
69393;SHT31;56582;44.624;20.378;2022-10-23T08:34:55;18.55;77.55
69393;SHT31;56582;44.624;20.378;2022-10-23T08:37:20;18.97;75.14
69393;SHT31;56582;44.624;20.378;2022-10-23T08:39:46;18.90;76.16
69393;SHT31;56582;44.624;20.378;2022-10-23T08:42:20;19.07;77.03
69393;SHT31;56582;44.624;20.378;2022-10-23T08:44:54;19.11;75.13
69393;SHT31;56582;44.624;20.378;2022-10-23T08:47:50;19.15;75.33
69393;SHT31;56582;44.624;20.378;2022-10-23T08:50:31;19.08;76.21
69393;SHT31;56582;44.624;20.378;2022-10-23T08:55:40;19.53;74.98
69393;SHT31;56582;44.624;20.378;2022-10-23T09:00:53;19.74;73.12
69393;SHT31;56582;44.624;20.378;2022-10-23T09:03:19;19.83;73.74
69393;SHT31;56582;44.624;20.378;2022-10-23T09:17:23;19.77;75.79
69393;SHT31;56582;44.624;20.378;2022-10-23T09:19:54;19.59;74.74
69393;SHT31;56582;44.624;20.378;2022-10-23T09:22:22;19.80;75.11
69393;SHT31;56582;44.624;20.378;2022-10-23T09:24:47;19.94;72.50
69393;SHT31;56582;44.624;20.378;2022-10-23T09:27:16;19.98;73.60
69393;SHT31;56582;44.624;20.378;2022-10-23T09:29:51;19.63;74.95
69393;SHT31;56582;44.624;20.378;2022-10-23T09:32:17;19.46;76.55
69393;SHT31;56582;44.624;20.378;2022-10-23T09:34:53;19.72;73.85
69393;SHT31;56582;44.624;20.378;2022-10-23T09:37:20;19.56;75.27
69393;SHT31;56582;44.624;20.378;2022-10-23T09:39:46;19.73;73.47
69393;SHT31;56582;44.624;20.378;2022-10-23T09:42:21;19.94;74.27
69393;SHT31;56582;44.624;20.378;2022-10-23T09:44:49;20.17;73.89
69393;SHT31;56582;44.624;20.378;2022-10-23T09:47:18;20.47;72.07
69393;SHT31;56582;44.624;20.378;2022-10-23T09:49:49;20.35;73.10
69393;SHT31;56582;44.624;20.378;2022-10-23T09:57:29;20.44;71.59
69393;SHT31;56582;44.624;20.378;2022-10-23T10:00:14;20.53;71.12
69393;SHT31;56582;44.624;20.378;2022-10-23T10:02:41;20.34;71.56
69393;SHT31;56582;44.624;20.378;2022-10-23T10:10:59;20.71;70.27
69393;SHT31;56582;44.624;20.378;2022-10-23T10:18:49;20.41;70.41
69393;SHT31;56582;44.624;20.378;2022-10-23T10:29:43;21.02;66.55
69393;SHT31;56582;44.624;20.378;2022-10-23T10:32:38;21.04;66.67
69393;SHT31;56582;44.624;20.378;2022-10-23T10:43:43;21.22;64.93
69393;SHT31;56582;44.624;20.378;2022-10-23T10:46:18;21.41;64.57
69393;SHT31;56582;44.624;20.378;2022-10-23T10:49:02;21.29;65.66
69393;SHT31;56582;44.624;20.378;2022-10-23T10:51:40;21.31;64.93
69393;SHT31;56582;44.624;20.378;2022-10-23T10:56:59;20.93;66.23
69393;SHT31;56582;44.624;20.378;2022-10-23T10:59:37;21.09;66.26
69393;SHT31;56582;44.624;20.378;2022-10-23T11:07:36;21.23;65.80
69393;SHT31;56582;44.624;20.378;2022-10-23T11:10:11;20.99;65.32
69393;SHT31;56582;44.624;20.378;2022-10-23T11:12:38;21.29;65.01
69393;SHT31;56582;44.624;20.378;2022-10-23T11:15:11;21.31;63.97
69393;SHT31;56582;44.624;20.378;2022-10-23T11:17:39;21.34;64.97
69393;SHT31;56582;44.624;20.378;2022-10-23T11:22:59;21.68;63.67
69393;SHT31;56582;44.624;20.378;2022-10-23T11:36:45;21.94;62.39
69393;SHT31;56582;44.624;20.378;2022-10-23T11:39:18;21.81;62.46
69393;SHT31;56582;44.624;20.378;2022-10-23T11:42:14;21.60;60.10
69393;SHT31;56582;44.624;20.378;2022-10-23T11:44:45;21.55;58.92
69393;SHT31;56582;44.624;20.378;2022-10-23T11:47:37;21.65;63.98
69393;SHT31;56582;44.624;20.378;2022-10-23T11:52:33;21.69;61.90
69393;SHT31;56582;44.624;20.378;2022-10-23T11:55:18;21.74;60.71
69393;SHT31;56582;44.624;20.378;2022-10-23T12:00:33;21.46;62.77
69393;SHT31;56582;44.624;20.378;2022-10-23T12:03:00;21.54;61.74
69393;SHT31;56582;44.624;20.378;2022-10-23T12:05:32;21.44;62.87
69393;SHT31;56582;44.624;20.378;2022-10-23T12:08:04;21.62;63.11
69393;SHT31;56582;44.624;20.378;2022-10-23T12:10:42;21.54;60.83
69393;SHT31;56582;44.624;20.378;2022-10-23T12:15:54;21.99;61.59
69393;SHT31;56582;44.624;20.378;2022-10-23T12:18:20;22.28;60.65
69393;SHT31;56582;44.624;20.378;2022-10-23T12:20:50;22.23;61.35
69393;SHT31;56582;44.624;20.378;2022-10-23T12:23:25;22.39;60.20
69393;SHT31;56582;44.624;20.378;2022-10-23T12:39:52;22.46;60.45
69393;SHT31;56582;44.624;20.378;2022-10-23T12:42:24;22.71;59.90
69393;SHT31;56582;44.624;20.378;2022-10-23T12:44:58;22.76;59.19
69393;SHT31;56582;44.624;20.378;2022-10-23T12:47:24;22.88;60.02
69393;SHT31;56582;44.624;20.378;2022-10-23T12:49:50;22.98;59.14
69393;SHT31;56582;44.624;20.378;2022-10-23T12:52:17;23.01;59.15
69393;SHT31;56582;44.624;20.378;2022-10-23T12:54:43;22.88;57.97
69393;SHT31;56582;44.624;20.378;2022-10-23T12:57:23;23.22;56.28
69393;SHT31;56582;44.624;20.378;2022-10-23T13:00:03;23.22;58.17
69393;SHT31;56582;44.624;20.378;2022-10-23T13:02:32;23.11;58.90
69393;SHT31;56582;44.624;20.378;2022-10-23T13:05:00;23.25;56.86
69393;SHT31;56582;44.624;20.378;2022-10-23T13:07:28;23.15;56.51
69393;SHT31;56582;44.624;20.378;2022-10-23T13:09:56;23.00;57.43
69393;SHT31;56582;44.624;20.378;2022-10-23T13:12:28;22.87;57.46
69393;SHT31;56582;44.624;20.378;2022-10-23T13:14:58;22.68;58.55
69393;SHT31;56582;44.624;20.378;2022-10-23T13:17:35;22.64;59.29
69393;SHT31;56582;44.624;20.378;2022-10-23T13:20:21;23.04;58.48
69393;SHT31;56582;44.624;20.378;2022-10-23T13:22:48;23.26;58.38
69393;SHT31;56582;44.624;20.378;2022-10-23T13:25:29;23.26;58.92
69393;SHT31;56582;44.624;20.378;2022-10-23T13:28:49;23.26;58.60
69393;SHT31;56582;44.624;20.378;2022-10-23T13:36:28;23.58;57.22
69393;SHT31;56582;44.624;20.378;2022-10-23T13:41:39;23.51;57.18
69393;SHT31;56582;44.624;20.378;2022-10-23T13:44:06;23.51;57.11
69393;SHT31;56582;44.624;20.378;2022-10-23T13:46:32;23.63;56.70
69393;SHT31;56582;44.624;20.378;2022-10-23T13:48:57;23.52;56.86
69393;SHT31;56582;44.624;20.378;2022-10-23T13:51:27;23.55;56.63
69393;SHT31;56582;44.624;20.378;2022-10-23T13:53:54;23.67;56.18
69393;SHT31;56582;44.624;20.378;2022-10-23T13:56:21;23.73;56.58
69393;SHT31;56582;44.624;20.378;2022-10-23T13:58:47;23.22;56.50
69393;SHT31;56582;44.624;20.378;2022-10-23T14:01:24;22.81;56.22
69393;SHT31;56582;44.624;20.378;2022-10-23T14:03:51;22.88;59.30
69393;SHT31;56582;44.624;20.378;2022-10-23T14:06:17;22.84;58.75
69393;SHT31;56582;44.624;20.378;2022-10-23T14:08:43;22.98;59.39
69393;SHT31;56582;44.624;20.378;2022-10-23T14:11:12;22.95;59.62
69393;SHT31;56582;44.624;20.378;2022-10-23T14:13:38;23.07;59.72
69393;SHT31;56582;44.624;20.378;2022-10-23T14:16:05;23.33;59.13
69393;SHT31;56582;44.624;20.378;2022-10-23T14:18:31;23.49;58.64
69393;SHT31;56582;44.624;20.378;2022-10-23T14:21:01;23.32;58.38
69393;SHT31;56582;44.624;20.378;2022-10-23T14:23:26;23.41;59.05
69393;SHT31;56582;44.624;20.378;2022-10-23T14:25:52;23.51;58.72
69393;SHT31;56582;44.624;20.378;2022-10-23T14:28:17;23.38;58.52
69393;SHT31;56582;44.624;20.378;2022-10-23T14:30:43;23.42;58.94
69393;SHT31;56582;44.624;20.378;2022-10-23T14:33:08;23.28;58.38
69393;SHT31;56582;44.624;20.378;2022-10-23T14:35:38;23.07;59.41
69393;SHT31;56582;44.624;20.378;2022-10-23T14:38:04;22.97;59.96
69393;SHT31;56582;44.624;20.378;2022-10-23T14:40:29;22.98;60.06
69393;SHT31;56582;44.624;20.378;2022-10-23T14:42:55;23.05;59.88
69393;SHT31;56582;44.624;20.378;2022-10-23T14:45:20;23.14;59.68
69393;SHT31;56582;44.624;20.378;2022-10-23T14:47:46;23.15;59.19
69393;SHT31;56582;44.624;20.378;2022-10-23T14:50:12;23.24;59.52
69393;SHT31;56582;44.624;20.378;2022-10-23T14:52:38;23.25;59.53
69393;SHT31;56582;44.624;20.378;2022-10-23T14:55:04;23.35;59.22
69393;SHT31;56582;44.624;20.378;2022-10-23T14:57:30;23.39;59.37
69393;SHT31;56582;44.624;20.378;2022-10-23T14:59:55;23.21;59.49
69393;SHT31;56582;44.624;20.378;2022-10-23T15:02:20;23.04;60.08
69393;SHT31;56582;44.624;20.378;2022-10-23T15:04:46;22.90;60.78
69393;SHT31;56582;44.624;20.378;2022-10-23T15:07:11;22.91;59.87
69393;SHT31;56582;44.624;20.378;2022-10-23T15:09:37;22.74;61.22
69393;SHT31;56582;44.624;20.378;2022-10-23T15:12:04;22.32;61.34
69393;SHT31;56582;44.624;20.378;2022-10-23T15:14:30;21.95;61.83
69393;SHT31;56582;44.624;20.378;2022-10-23T15:16:56;21.74;61.61
69393;SHT31;56582;44.624;20.378;2022-10-23T15:19:22;21.19;63.75
69393;SHT31;56582;44.624;20.378;2022-10-23T15:21:49;21.11;64.62
69393;SHT31;56582;44.624;20.378;2022-10-23T15:24:15;21.11;69.34
69393;SHT31;56582;44.624;20.378;2022-10-23T15:26:41;21.10;65.60
69393;SHT31;56582;44.624;20.378;2022-10-23T15:29:08;21.06;64.40
69393;SHT31;56582;44.624;20.378;2022-10-23T15:34:07;21.44;68.16
69393;SHT31;56582;44.624;20.378;2022-10-23T15:36:33;21.51;67.31
69393;SHT31;56582;44.624;20.378;2022-10-23T15:38:59;21.43;66.38
69393;SHT31;56582;44.624;20.378;2022-10-23T15:41:29;21.36;67.07
69393;SHT31;56582;44.624;20.378;2022-10-23T15:43:57;21.27;66.78
69393;SHT31;56582;44.624;20.378;2022-10-23T15:46:22;21.13;68.26
69393;SHT31;56582;44.624;20.378;2022-10-23T15:48:48;21.07;67.79
69393;SHT31;56582;44.624;20.378;2022-10-23T15:51:13;21.03;67.82
69393;SHT31;56582;44.624;20.378;2022-10-23T15:53:39;21.22;67.84
69393;SHT31;56582;44.624;20.378;2022-10-23T15:56:04;21.19;68.07
69393;SHT31;56582;44.624;20.378;2022-10-23T15:58:30;21.18;66.58
69393;SHT31;56582;44.624;20.378;2022-10-23T16:00:55;21.06;67.90
69393;SHT31;56582;44.624;20.378;2022-10-23T16:03:21;20.92;68.05
69393;SHT31;56582;44.624;20.378;2022-10-23T16:05:50;20.86;68.53
69393;SHT31;56582;44.624;20.378;2022-10-23T16:08:15;20.98;67.65
69393;SHT31;56582;44.624;20.378;2022-10-23T16:10:41;21.02;68.07
69393;SHT31;56582;44.624;20.378;2022-10-23T16:13:08;21.07;67.67
69393;SHT31;56582;44.624;20.378;2022-10-23T16:15:37;21.16;67.72
69393;SHT31;56582;44.624;20.378;2022-10-23T16:18:02;21.07;68.12
69393;SHT31;56582;44.624;20.378;2022-10-23T16:20:28;21.10;66.98
69393;SHT31;56582;44.624;20.378;2022-10-23T16:22:53;20.68;64.33
69393;SHT31;56582;44.624;20.378;2022-10-23T16:25:19;20.73;68.42
69393;SHT31;56582;44.624;20.378;2022-10-23T16:27:45;20.71;65.69
69393;SHT31;56582;44.624;20.378;2022-10-23T16:30:10;20.68;67.73
69393;SHT31;56582;44.624;20.378;2022-10-23T16:32:41;20.75;66.64
69393;SHT31;56582;44.624;20.378;2022-10-23T16:35:07;20.73;67.20
69393;SHT31;56582;44.624;20.378;2022-10-23T16:37:33;20.86;65.93
69393;SHT31;56582;44.624;20.378;2022-10-23T16:39:58;20.62;65.76
69393;SHT31;56582;44.624;20.378;2022-10-23T16:42:25;20.51;67.16
69393;SHT31;56582;44.624;20.378;2022-10-23T16:44:50;20.35;67.35
69393;SHT31;56582;44.624;20.378;2022-10-23T16:47:16;20.25;65.64
69393;SHT31;56582;44.624;20.378;2022-10-23T16:49:41;20.35;68.03
69393;SHT31;56582;44.624;20.378;2022-10-23T16:52:07;20.41;67.12
69393;SHT31;56582;44.624;20.378;2022-10-23T16:54:33;20.38;67.93
69393;SHT31;56582;44.624;20.378;2022-10-23T16:56:58;20.37;67.21
69393;SHT31;56582;44.624;20.378;2022-10-23T16:59:24;20.41;67.54
69393;SHT31;56582;44.624;20.378;2022-10-23T17:01:49;20.48;67.61
69393;SHT31;56582;44.624;20.378;2022-10-23T17:04:14;20.30;64.90
69393;SHT31;56582;44.624;20.378;2022-10-23T17:06:40;20.32;67.35
69393;SHT31;56582;44.624;20.378;2022-10-23T17:09:05;20.11;67.15
69393;SHT31;56582;44.624;20.378;2022-10-23T17:11:36;19.94;66.94
69393;SHT31;56582;44.624;20.378;2022-10-23T17:14:25;20.13;68.00
69393;SHT31;56582;44.624;20.378;2022-10-23T17:16:55;20.06;66.49
69393;SHT31;56582;44.624;20.378;2022-10-23T17:19:23;20.24;67.23
69393;SHT31;56582;44.624;20.378;2022-10-23T17:21:49;20.30;67.44
69393;SHT31;56582;44.624;20.378;2022-10-23T17:24:14;20.30;66.94
69393;SHT31;56582;44.624;20.378;2022-10-23T17:26:40;20.38;66.72
69393;SHT31;56582;44.624;20.378;2022-10-23T17:29:07;20.30;67.09
69393;SHT31;56582;44.624;20.378;2022-10-23T17:31:35;20.37;66.80
69393;SHT31;56582;44.624;20.378;2022-10-23T17:34:04;20.40;66.96
69393;SHT31;56582;44.624;20.378;2022-10-23T17:36:33;20.47;68.03
69393;SHT31;56582;44.624;20.378;2022-10-23T17:38:59;20.41;67.88
69393;SHT31;56582;44.624;20.378;2022-10-23T17:41:25;20.48;67.65